createdAt,value
2022-12-14T00:01:17.881Z,6.47
2022-12-14T00:03:50.627Z,6.53
2022-12-14T00:06:27.828Z,5.20
2022-12-14T00:09:04.736Z,6.50
2022-12-14T00:11:47.977Z,6.28
2022-12-14T00:17:06.210Z,6.10
2022-12-14T00:19:46.171Z,6.53
2022-12-14T00:22:25.866Z,6.85
2022-12-14T00:24:57.929Z,6.97
2022-12-14T00:27:34.848Z,7.22
2022-12-14T00:30:12.269Z,7.60
2022-12-14T00:32:41.594Z,6.23
2022-12-14T00:35:29.992Z,7.07
2022-12-14T00:38:03.138Z,8.38
2022-12-14T00:40:31.409Z,7.47
2022-12-14T00:43:05.930Z,7.22
2022-12-14T00:45:33.154Z,4.23
2022-12-14T00:48:12.522Z,8.70
2022-12-14T00:50:48.657Z,8.05
2022-12-14T00:53:22.720Z,8.48
2022-12-14T00:55:59.611Z,7.72
2022-12-14T00:58:40.512Z,9.27
2022-12-14T01:01:17.689Z,9.13
2022-12-14T01:03:50.168Z,8.07
2022-12-14T01:06:28.471Z,9.13
2022-12-14T01:08:55.664Z,6.57
2022-12-14T01:11:22.780Z,7.83
2022-12-14T01:13:52.067Z,8.75
2022-12-14T01:16:26.222Z,8.73
2022-12-14T01:19:02.372Z,8.35
2022-12-14T01:21:45.300Z,6.78
2022-12-14T01:24:15.454Z,7.93
2022-12-14T01:26:54.256Z,8.23
2022-12-14T01:29:25.969Z,8.40
2022-12-14T01:31:56.204Z,8.20
2022-12-14T01:34:23.802Z,8.00
2022-12-14T01:36:56.125Z,7.80
2022-12-14T01:39:28.337Z,7.20
2022-12-14T01:42:00.959Z,6.00
2022-12-14T01:44:33.134Z,6.45
2022-12-14T01:47:12.956Z,7.57
2022-12-14T01:50:08.182Z,7.10
2022-12-14T01:52:47.967Z,7.03
2022-12-14T01:55:37.062Z,6.75
2022-12-14T01:58:09.960Z,7.95
2022-12-14T02:00:43.348Z,6.95
2022-12-14T02:03:28.298Z,6.67
2022-12-14T02:06:03.365Z,7.80
2022-12-14T02:08:33.953Z,8.52
2022-12-14T02:11:04.465Z,8.40
2022-12-14T02:13:34.599Z,7.13
2022-12-14T02:16:07.785Z,8.67
2022-12-14T02:18:37.578Z,7.95
2022-12-14T02:21:26.655Z,7.93
2022-12-14T02:24:28.893Z,7.68
2022-12-14T02:27:09.950Z,6.55
2022-12-14T02:29:56.582Z,7.30
2022-12-14T02:33:01.467Z,6.45
2022-12-14T02:35:51.990Z,6.28
2022-12-14T02:38:40.337Z,6.97
2022-12-14T02:41:40.151Z,5.45
2022-12-14T02:44:35.024Z,6.30
2022-12-14T02:47:48.142Z,6.28
2022-12-14T02:50:44.023Z,7.20
2022-12-14T02:54:01.176Z,2.90
2022-12-14T02:56:37.986Z,5.38
2022-12-14T02:59:24.001Z,5.43
2022-12-14T03:02:03.489Z,6.43
2022-12-14T03:04:46.048Z,4.88
2022-12-14T03:07:53.207Z,6.20
2022-12-14T03:10:43.458Z,5.50
2022-12-14T03:13:45.795Z,5.87
2022-12-14T03:16:31.756Z,4.43
2022-12-14T03:19:26.870Z,5.93
2022-12-14T03:22:00.998Z,5.30
2022-12-14T03:24:41.981Z,4.75
2022-12-14T03:27:20.537Z,6.10
2022-12-14T03:30:11.772Z,5.82
2022-12-14T03:32:56.160Z,4.95
2022-12-14T03:35:41.549Z,5.18
2022-12-14T03:38:42.284Z,4.70
2022-12-14T03:41:30.920Z,5.17
2022-12-14T03:48:20.282Z,4.88
2022-12-14T03:51:12.802Z,6.35
2022-12-14T03:54:14.576Z,4.82
2022-12-14T03:57:25.179Z,4.33
2022-12-14T04:00:09.152Z,6.13
2022-12-14T04:03:23.743Z,5.30
2022-12-14T04:06:00.310Z,4.85
2022-12-14T04:08:52.956Z,5.28
2022-12-14T04:12:01.975Z,4.90
2022-12-14T04:15:01.626Z,5.15
2022-12-14T04:17:54.907Z,5.63
2022-12-14T04:20:39.598Z,4.50
2022-12-14T04:23:12.726Z,5.15
2022-12-14T04:26:10.313Z,5.70
2022-12-14T04:29:30.130Z,5.50
2022-12-14T04:32:20.706Z,4.85
2022-12-14T04:34:58.623Z,4.22
2022-12-14T04:37:42.953Z,5.50
2022-12-14T04:40:11.209Z,5.00
2022-12-14T04:42:48.540Z,6.50
2022-12-14T04:45:31.622Z,5.88
2022-12-14T04:48:26.855Z,3.95
2022-12-14T04:51:08.069Z,3.72
2022-12-14T04:53:42.647Z,5.40
2022-12-14T04:56:22.083Z,3.65
2022-12-14T04:58:59.418Z,3.05
2022-12-14T05:01:49.113Z,4.53
2022-12-14T05:04:27.144Z,4.85
2022-12-14T05:07:28.080Z,4.50
2022-12-14T05:10:07.423Z,4.63
2022-12-14T05:13:00.773Z,5.85
2022-12-14T05:15:35.629Z,5.75
2022-12-14T05:18:10.645Z,4.88
2022-12-14T05:20:50.242Z,4.60
2022-12-14T05:23:17.849Z,5.35
2022-12-14T05:25:59.529Z,4.32
2022-12-14T05:28:32.375Z,4.55
2022-12-14T05:31:11.887Z,4.93
2022-12-14T05:33:48.420Z,5.00
2022-12-14T05:36:18.787Z,4.50
2022-12-14T05:38:52.114Z,3.83
2022-12-14T05:41:30.425Z,4.22
2022-12-14T05:44:03.132Z,5.03
2022-12-14T05:46:42.925Z,4.10
2022-12-14T05:49:16.973Z,4.43
2022-12-14T05:51:51.593Z,4.32
2022-12-14T05:54:20.824Z,5.38
2022-12-14T05:56:58.305Z,5.25
2022-12-14T05:59:25.525Z,4.93
2022-12-14T06:01:52.690Z,6.20
2022-12-14T06:04:24.123Z,5.88
2022-12-14T06:07:02.300Z,4.13
2022-12-14T06:09:34.060Z,3.97
2022-12-14T06:12:29.570Z,4.07
2022-12-14T06:14:57.614Z,4.75
2022-12-14T06:17:26.969Z,4.80
2022-12-14T06:20:02.499Z,4.15
2022-12-14T06:22:47.560Z,4.70
2022-12-14T06:25:19.573Z,5.77
2022-12-14T06:27:56.425Z,5.28
2022-12-14T06:30:26.621Z,4.82
2022-12-14T06:32:59.653Z,5.18
2022-12-14T06:35:26.934Z,3.75
2022-12-14T06:37:56.431Z,5.27
2022-12-14T06:40:29.373Z,4.15
2022-12-14T06:43:05.861Z,4.20
2022-12-14T06:45:33.106Z,3.53
2022-12-14T06:48:07.597Z,3.75
2022-12-14T06:50:43.519Z,4.37
2022-12-14T06:53:20.687Z,4.82
2022-12-14T06:55:49.340Z,3.38
2022-12-14T06:58:20.333Z,3.00
2022-12-14T07:00:47.543Z,3.85
2022-12-14T07:03:14.886Z,4.70
2022-12-14T07:05:49.115Z,4.75
2022-12-14T07:08:21.772Z,4.57
2022-12-14T07:11:00.520Z,3.95
2022-12-14T07:13:34.187Z,4.22
2022-12-14T07:16:14.846Z,4.70
2022-12-14T07:18:55.603Z,5.20
2022-12-14T07:21:26.055Z,5.00
2022-12-14T07:24:03.264Z,4.32
2022-12-14T07:26:40.321Z,3.20
2022-12-14T07:29:19.317Z,4.67
2022-12-14T07:31:49.186Z,4.90
2022-12-14T07:34:20.203Z,5.43
2022-12-14T07:36:56.677Z,5.07
2022-12-14T07:39:31.703Z,3.85
2022-12-14T07:41:58.923Z,4.70
2022-12-14T07:44:34.543Z,4.78
2022-12-14T07:47:06.018Z,4.85
2022-12-14T07:49:53.713Z,4.22
2022-12-14T07:52:24.049Z,5.05
2022-12-14T07:54:55.155Z,4.57
2022-12-14T07:57:32.180Z,4.05
2022-12-14T08:00:06.578Z,5.38
2022-12-14T08:02:42.699Z,4.30
2022-12-14T08:05:15.403Z,5.80
2022-12-14T08:07:46.441Z,5.47
2022-12-14T08:10:17.237Z,5.13
2022-12-14T08:12:59.133Z,5.43
2022-12-14T08:15:35.540Z,6.00
2022-12-14T08:18:17.074Z,3.67
2022-12-14T08:21:05.671Z,4.43
2022-12-14T08:23:44.843Z,4.55
2022-12-14T08:26:12.150Z,3.88
2022-12-14T08:28:43.416Z,3.85
2022-12-14T08:31:16.275Z,4.20
2022-12-14T08:33:52.411Z,5.07
2022-12-14T08:36:36.669Z,3.88
2022-12-14T08:39:15.349Z,4.07
2022-12-14T08:41:50.171Z,3.88
2022-12-14T08:44:22.474Z,3.25
2022-12-14T08:47:00.972Z,3.73
2022-12-14T08:49:32.455Z,4.22
2022-12-14T08:52:00.124Z,2.92
2022-12-14T08:54:27.433Z,3.83
2022-12-14T08:56:54.610Z,3.58
2022-12-14T08:59:52.168Z,4.57
2022-12-14T09:02:17.675Z,4.10
2022-12-14T09:04:49.909Z,4.10
2022-12-14T09:07:20.348Z,3.80
2022-12-14T09:09:56.651Z,3.88
2022-12-14T09:12:28.801Z,3.83
2022-12-14T09:15:07.955Z,4.60
2022-12-14T09:17:38.323Z,3.85
2022-12-14T09:20:21.599Z,3.03
2022-12-14T09:22:56.345Z,3.10
2022-12-14T09:25:33.198Z,3.47
2022-12-14T09:28:06.031Z,3.47
2022-12-14T09:30:35.679Z,3.25
2022-12-14T09:33:07.746Z,3.75
2022-12-14T09:35:39.004Z,3.85
2022-12-14T09:38:11.432Z,4.73
2022-12-14T09:40:56.065Z,3.97
2022-12-14T09:43:40.894Z,3.05
2022-12-14T09:46:37.918Z,4.13
2022-12-14T09:49:16.631Z,4.15
2022-12-14T09:51:54.477Z,4.57
2022-12-14T09:54:40.858Z,3.30
2022-12-14T09:57:33.233Z,4.18
2022-12-14T10:00:38.305Z,5.03
2022-12-14T10:04:04.169Z,3.60
2022-12-14T10:06:53.658Z,3.30
2022-12-14T10:09:35.124Z,4.90
2022-12-14T10:12:21.152Z,3.80
2022-12-14T10:15:30.297Z,4.00
2022-12-14T10:21:43.038Z,3.27
2022-12-14T10:24:21.114Z,4.40
2022-12-14T10:26:54.557Z,4.38
2022-12-14T10:29:39.904Z,4.45
2022-12-14T10:32:20.708Z,4.45
2022-12-14T10:34:51.673Z,3.60
2022-12-14T10:37:37.974Z,3.08
2022-12-14T10:43:32.963Z,3.83
2022-12-14T10:46:16.330Z,3.42
2022-12-14T10:49:15.394Z,4.17
2022-12-14T10:51:47.819Z,4.07
2022-12-14T10:54:27.358Z,4.35
2022-12-14T10:56:59.686Z,3.95
2022-12-14T10:59:42.311Z,3.92
2022-12-14T11:02:38.338Z,4.97
2022-12-14T11:05:38.355Z,4.43
2022-12-14T11:08:31.485Z,3.95
2022-12-14T11:11:18.399Z,3.58
2022-12-14T11:13:58.664Z,4.38
2022-12-14T11:16:41.771Z,4.10
2022-12-14T11:19:25.793Z,4.47
2022-12-14T11:22:28.457Z,4.43
2022-12-14T11:25:01.218Z,3.97
2022-12-14T11:27:31.589Z,3.35
2022-12-14T11:30:01.123Z,4.07
2022-12-14T11:32:30.920Z,3.75
2022-12-14T11:35:06.720Z,4.32
2022-12-14T11:37:39.992Z,3.90
2022-12-14T11:40:31.320Z,3.70
2022-12-14T11:43:09.859Z,4.30
2022-12-14T11:45:46.056Z,4.25
2022-12-14T11:48:25.671Z,4.93
2022-12-14T11:51:06.273Z,4.57
2022-12-14T11:53:37.099Z,5.13
2022-12-14T11:56:22.415Z,5.00
2022-12-14T11:58:52.958Z,3.80
2022-12-14T12:01:31.070Z,4.43
2022-12-14T12:04:10.665Z,4.25
2022-12-14T12:06:38.597Z,3.60
2022-12-14T12:09:23.126Z,4.57
2022-12-14T12:12:02.087Z,4.03
2022-12-14T12:14:41.760Z,3.80
2022-12-14T12:17:40.379Z,5.25
2022-12-14T12:20:28.595Z,4.57
2022-12-14T12:23:11.422Z,2.77
2022-12-14T12:25:52.743Z,4.78
2022-12-14T12:28:33.386Z,4.53
2022-12-14T12:31:11.262Z,5.60
2022-12-14T12:34:38.044Z,4.57
2022-12-14T12:37:32.546Z,4.57
2022-12-14T12:40:15.523Z,4.60
2022-12-14T12:43:00.099Z,4.90
2022-12-14T12:45:44.227Z,4.85
2022-12-14T12:48:23.929Z,3.92
2022-12-14T12:51:02.529Z,3.90
2022-12-14T12:53:49.718Z,4.07
2022-12-14T12:56:53.315Z,5.00
2022-12-14T12:59:28.989Z,4.53
2022-12-14T13:02:35.184Z,4.57
2022-12-14T13:08:34.285Z,3.92
2022-12-14T13:11:26.224Z,4.63
2022-12-14T13:14:02.145Z,3.90
2022-12-14T13:16:42.561Z,3.78
2022-12-14T13:19:49.874Z,4.57
2022-12-14T13:22:24.378Z,4.18
2022-12-14T13:24:59.713Z,4.25
2022-12-14T13:27:48.865Z,4.72
2022-12-14T13:30:35.122Z,5.03
2022-12-14T13:33:52.195Z,4.93
2022-12-14T13:36:39.095Z,4.25
2022-12-14T13:39:44.002Z,4.10
2022-12-14T13:42:43.491Z,4.90
2022-12-14T13:45:30.202Z,6.00
2022-12-14T13:48:00.583Z,5.53
2022-12-14T13:50:36.595Z,5.30
2022-12-14T13:53:23.886Z,4.95
2022-12-14T13:59:04.356Z,4.80
2022-12-14T14:01:49.831Z,4.60
2022-12-14T14:04:32.080Z,5.22
2022-12-14T14:07:28.128Z,4.07
2022-12-14T14:10:12.220Z,4.00
2022-12-14T14:12:46.749Z,4.32
2022-12-14T14:15:47.327Z,4.57
2022-12-14T14:18:34.749Z,4.30
2022-12-14T14:21:18.052Z,4.50
2022-12-14T14:24:09.744Z,6.28
2022-12-14T14:26:42.896Z,5.70
2022-12-14T14:29:37.818Z,3.87
2022-12-14T14:32:36.319Z,5.25
2022-12-14T14:35:44.181Z,4.93
2022-12-14T14:38:36.642Z,6.50
2022-12-14T14:41:17.703Z,5.25
2022-12-14T14:44:03.697Z,6.03
2022-12-14T14:47:13.418Z,5.82
2022-12-14T14:49:43.784Z,4.50
2022-12-14T14:52:37.868Z,4.70
2022-12-14T14:59:25.049Z,5.03
2022-12-14T15:02:07.719Z,4.30
2022-12-14T15:05:17.599Z,4.75
2022-12-14T15:07:57.935Z,6.47
2022-12-14T15:10:39.640Z,6.63
2022-12-14T15:13:31.389Z,7.70
2022-12-14T15:16:03.017Z,6.05
2022-12-14T15:18:35.359Z,5.40
2022-12-14T15:21:11.633Z,6.53
2022-12-14T15:23:53.624Z,7.22
2022-12-14T15:26:34.000Z,6.03
2022-12-14T15:29:05.025Z,7.32
2022-12-14T15:31:47.374Z,7.18
2022-12-14T15:34:26.437Z,6.05
2022-12-14T15:36:59.171Z,6.38
2022-12-14T15:40:05.011Z,5.90
2022-12-14T15:42:34.262Z,5.10
2022-12-14T15:45:12.702Z,5.70
2022-12-14T15:47:49.227Z,5.90
2022-12-14T15:50:32.771Z,7.13
2022-12-14T15:53:14.058Z,6.27
2022-12-14T15:56:03.967Z,5.88
2022-12-14T15:58:45.075Z,5.40
2022-12-14T16:01:24.679Z,6.95
2022-12-14T16:04:07.071Z,7.55
2022-12-14T16:06:51.649Z,6.33
2022-12-14T16:09:23.235Z,8.18
2022-12-14T16:11:59.009Z,7.82
2022-12-14T16:14:46.883Z,6.47
2022-12-14T16:17:35.115Z,6.85
2022-12-14T16:20:30.981Z,8.87
2022-12-14T16:23:18.813Z,7.13
2022-12-14T16:25:54.606Z,6.93
2022-12-14T16:28:27.676Z,6.45
2022-12-14T16:31:03.615Z,6.65
2022-12-14T16:33:44.609Z,6.33
2022-12-14T16:36:30.973Z,6.57
2022-12-14T16:39:02.204Z,7.43
2022-12-14T16:41:46.570Z,7.60
2022-12-14T16:44:47.239Z,7.20
2022-12-14T16:47:24.610Z,7.30
2022-12-14T16:50:01.176Z,6.95
2022-12-14T16:52:37.440Z,7.53
2022-12-14T16:55:22.476Z,9.02
2022-12-14T16:58:09.446Z,8.15
2022-12-14T17:00:39.901Z,8.37
2022-12-14T17:03:22.003Z,8.25
2022-12-14T17:05:57.325Z,9.00
2022-12-14T17:08:26.790Z,8.63
2022-12-14T17:10:59.694Z,8.65
2022-12-14T17:13:34.632Z,9.33
2022-12-14T17:16:32.982Z,9.43
2022-12-14T17:19:06.454Z,10.10
2022-12-14T17:21:48.180Z,10.05
2022-12-14T17:24:31.662Z,8.00
2022-12-14T17:27:08.293Z,7.43
2022-12-14T17:29:38.876Z,7.40
2022-12-14T17:32:08.553Z,7.88
2022-12-14T17:34:38.822Z,6.93
2022-12-14T17:37:32.409Z,8.40
2022-12-14T17:40:06.829Z,7.97
2022-12-14T17:42:44.878Z,9.05
2022-12-14T17:45:25.840Z,7.80
2022-12-14T17:48:04.922Z,8.55
2022-12-14T17:50:42.680Z,10.00
2022-12-14T17:53:26.669Z,10.37
2022-12-14T17:55:59.414Z,7.57
2022-12-14T17:58:31.517Z,8.40
2022-12-14T18:01:06.874Z,8.40
2022-12-14T18:03:36.942Z,8.32
2022-12-14T18:06:08.505Z,7.77
2022-12-14T18:08:47.009Z,9.07
2022-12-14T18:11:31.815Z,8.90
2022-12-14T18:14:11.359Z,7.25
2022-12-14T18:16:47.090Z,7.50
2022-12-14T18:19:29.514Z,7.97
2022-12-14T18:22:14.835Z,7.75
2022-12-14T18:24:49.188Z,8.80
2022-12-14T18:27:37.258Z,8.35
2022-12-14T18:30:13.042Z,8.18
2022-12-14T18:32:53.125Z,7.93
2022-12-14T18:35:27.694Z,8.50
2022-12-14T18:38:05.390Z,8.75
2022-12-14T18:40:34.490Z,8.88
2022-12-14T18:43:08.384Z,9.55
2022-12-14T18:45:40.233Z,8.40
2022-12-14T18:48:19.181Z,8.07
2022-12-14T18:50:54.502Z,9.52
2022-12-14T18:53:23.531Z,9.25
2022-12-14T18:56:19.374Z,9.43
2022-12-14T18:58:50.166Z,8.53
2022-12-14T19:01:26.543Z,8.75
2022-12-14T19:04:12.116Z,8.43
2022-12-14T19:06:48.425Z,8.57
2022-12-14T19:09:21.198Z,9.45
2022-12-14T19:11:52.701Z,10.97
2022-12-14T19:14:20.750Z,8.98
2022-12-14T19:16:51.587Z,9.13
2022-12-14T19:19:26.638Z,8.38
2022-12-14T19:22:10.916Z,9.20
2022-12-14T19:24:55.111Z,8.23
2022-12-14T19:27:50.906Z,8.25
2022-12-14T19:30:29.779Z,7.93
2022-12-14T19:33:00.348Z,8.65
2022-12-14T19:35:33.014Z,9.50
2022-12-14T19:38:01.340Z,9.07
2022-12-14T19:40:40.994Z,7.45
2022-12-14T19:43:24.445Z,10.10
2022-12-14T19:46:03.073Z,9.05
2022-12-14T19:48:39.237Z,9.23
2022-12-14T19:51:17.174Z,9.50
2022-12-14T19:53:51.017Z,7.38
2022-12-14T19:56:31.180Z,9.00
2022-12-14T19:59:03.580Z,9.82
2022-12-14T20:01:42.026Z,9.68
2022-12-14T20:04:15.748Z,10.23
2022-12-14T20:06:48.152Z,9.68
2022-12-14T20:09:19.575Z,8.20
2022-12-14T20:11:51.417Z,9.32
2022-12-14T20:14:30.413Z,8.35
2022-12-14T20:17:05.490Z,9.43
2022-12-14T20:19:36.884Z,7.95
2022-12-14T20:22:08.742Z,9.00
2022-12-14T20:24:42.054Z,9.60
2022-12-14T20:27:19.481Z,10.00
2022-12-14T20:29:51.773Z,9.53
2022-12-14T20:32:23.222Z,9.60
2022-12-14T20:35:02.177Z,9.93
2022-12-14T20:37:40.821Z,10.93
2022-12-14T20:40:12.687Z,10.95
2022-12-14T20:42:47.128Z,11.17
2022-12-14T20:45:20.408Z,8.85
2022-12-14T20:47:55.477Z,8.30
2022-12-14T20:50:34.992Z,8.70
2022-12-14T20:53:14.986Z,9.15
2022-12-14T20:56:06.537Z,8.17
2022-12-14T20:58:36.215Z,8.60
2022-12-14T21:01:20.153Z,7.97
2022-12-14T21:04:12.607Z,8.40
2022-12-14T21:06:45.547Z,8.63
2022-12-14T21:09:15.588Z,9.07
2022-12-14T21:12:14.438Z,7.78
2022-12-14T21:15:08.540Z,8.55
2022-12-14T21:17:45.007Z,8.15
2022-12-14T21:20:24.373Z,7.78
2022-12-14T21:23:03.208Z,9.33
2022-12-14T21:25:39.869Z,8.32
2022-12-14T21:28:09.830Z,8.95
2022-12-14T21:30:50.992Z,9.15
2022-12-14T21:33:24.850Z,9.10
2022-12-14T21:35:59.368Z,9.33
2022-12-14T21:38:33.831Z,9.20
2022-12-14T21:41:23.276Z,8.80
2022-12-14T21:43:51.282Z,8.98
2022-12-14T21:46:29.260Z,8.68
2022-12-14T21:48:56.838Z,9.23
2022-12-14T21:51:31.772Z,8.70
2022-12-14T21:54:21.299Z,9.63
2022-12-14T21:57:12.577Z,9.02
2022-12-14T21:59:48.585Z,9.48
2022-12-14T22:02:25.191Z,9.37
2022-12-14T22:05:00.928Z,9.23
2022-12-14T22:07:35.131Z,8.30
2022-12-14T22:10:08.788Z,8.30
2022-12-14T22:12:38.500Z,9.75
2022-12-14T22:15:09.935Z,9.43
2022-12-14T22:17:45.821Z,9.13
2022-12-14T22:20:22.143Z,9.68
2022-12-14T22:23:00.149Z,8.90
2022-12-14T22:25:30.832Z,10.20
2022-12-14T22:27:58.940Z,8.93
2022-12-14T22:30:34.905Z,10.02
2022-12-14T22:33:08.886Z,9.55
2022-12-14T22:35:37.431Z,9.30
2022-12-14T22:38:16.193Z,9.50
2022-12-14T22:40:59.775Z,9.60
2022-12-14T22:43:37.485Z,10.63
2022-12-14T22:46:05.967Z,9.73
2022-12-14T22:48:52.041Z,9.77
2022-12-14T22:51:25.881Z,9.23
2022-12-14T22:54:03.327Z,9.43
2022-12-14T22:56:49.332Z,9.52
2022-12-14T22:59:31.703Z,10.25
2022-12-14T23:02:06.522Z,10.57
2022-12-14T23:04:46.868Z,10.75
2022-12-14T23:07:23.217Z,10.67
2022-12-14T23:10:11.638Z,11.60
2022-12-14T23:12:58.898Z,10.88
2022-12-14T23:15:53.228Z,10.63
2022-12-14T23:18:40.352Z,10.98
2022-12-14T23:21:33.834Z,11.60
2022-12-14T23:24:26.347Z,11.60
2022-12-14T23:27:21.289Z,11.27
2022-12-14T23:30:09.029Z,11.15
2022-12-14T23:33:05.915Z,13.23
2022-12-14T23:35:57.739Z,11.93
2022-12-14T23:38:46.165Z,12.57
2022-12-14T23:41:34.666Z,13.30
2022-12-14T23:44:21.219Z,13.45
2022-12-14T23:47:09.837Z,14.52
2022-12-14T23:50:01.010Z,11.43
2022-12-14T23:53:01.433Z,10.27
2022-12-14T23:55:51.993Z,10.73
2022-12-14T23:58:43.290Z,10.52
